createdAt,value
2019-04-06T00:00:45.935Z,117.77
2019-04-06T00:01:53.394Z,120.50
2019-04-06T00:02:57.708Z,123.87
2019-04-06T00:04:02.065Z,125.53
2019-04-06T00:05:07.187Z,134.03
2019-04-06T00:06:11.834Z,133.73
2019-04-06T00:07:16.338Z,126.30
2019-04-06T00:08:20.736Z,139.93
2019-04-06T00:09:25.117Z,137.00
2019-04-06T00:10:29.595Z,138.53
2019-04-06T00:11:33.921Z,157.57
2019-04-06T00:12:38.264Z,157.57
2019-04-06T00:13:42.774Z,155.47
2019-04-06T00:14:47.122Z,153.10
2019-04-06T00:15:51.539Z,157.20
2019-04-06T00:16:55.871Z,153.80
2019-04-06T00:18:00.293Z,153.80
2019-04-06T00:19:04.857Z,165.87
2019-04-06T00:20:09.357Z,162.60
2019-04-06T00:21:13.753Z,157.43
2019-04-06T00:22:18.082Z,155.27
2019-04-06T00:23:22.377Z,147.50
2019-04-06T00:24:26.730Z,158.63
2019-04-06T00:25:31.140Z,169.80
2019-04-06T00:26:35.518Z,159.57
2019-04-06T00:27:40.088Z,163.20
2019-04-06T00:28:44.473Z,177.03
2019-04-06T00:29:48.784Z,170.57
2019-04-06T00:31:09.205Z,170.60
2019-04-06T00:32:35.757Z,169.00
2019-04-06T00:33:40.258Z,186.77
2019-04-06T00:34:44.587Z,196.10
2019-04-06T00:35:48.966Z,172.20
2019-04-06T00:36:53.322Z,178.97
2019-04-06T00:37:57.655Z,170.23
2019-04-06T00:39:02.103Z,192.73
2019-04-06T00:40:06.866Z,174.57
2019-04-06T00:41:11.386Z,201.17
2019-04-06T00:42:15.994Z,185.43
2019-04-06T00:43:20.344Z,192.67
2019-04-06T00:44:24.739Z,184.67
2019-04-06T00:45:29.091Z,199.87
2019-04-06T00:46:33.453Z,205.37
2019-04-06T00:47:37.863Z,211.17
2019-04-06T00:48:42.239Z,203.00
2019-04-06T00:49:46.686Z,193.57
2019-04-06T00:50:51.029Z,203.90
2019-04-06T00:51:55.539Z,218.20
2019-04-06T00:52:59.917Z,200.83
2019-04-06T00:54:04.348Z,225.13
2019-04-06T00:55:08.839Z,244.30
2019-04-06T00:56:13.395Z,232.47
2019-04-06T00:57:17.792Z,214.67
2019-04-06T00:58:22.126Z,223.60
2019-04-06T00:59:26.503Z,224.40
2019-04-06T01:00:30.887Z,225.60
2019-04-06T01:01:35.638Z,238.97
2019-04-06T01:02:40.109Z,250.10
2019-04-06T01:03:44.612Z,248.57
2019-04-06T01:04:48.932Z,237.10
2019-04-06T01:05:53.322Z,249.93
2019-04-06T01:06:57.683Z,251.57
2019-04-06T01:08:02.122Z,264.33
2019-04-06T01:09:09.539Z,251.53
2019-04-06T01:10:14.261Z,225.10
2019-04-06T01:11:18.624Z,234.93
2019-04-06T01:12:23.044Z,241.43
2019-04-06T01:13:27.755Z,241.53
2019-04-06T01:14:32.114Z,231.50
2019-04-06T01:15:36.528Z,232.17
2019-04-06T01:16:40.831Z,253.67
2019-04-06T01:17:45.183Z,239.90
2019-04-06T01:18:49.620Z,244.00
2019-04-06T01:19:54.092Z,251.93
2019-04-06T01:20:58.486Z,242.63
2019-04-06T01:22:02.879Z,249.67
2019-04-06T01:23:07.306Z,244.10
2019-04-06T01:24:11.692Z,263.07
2019-04-06T01:25:16.047Z,276.47
2019-04-06T01:26:20.476Z,287.17
2019-04-06T01:27:24.789Z,273.20
2019-04-06T01:28:29.178Z,294.47
2019-04-06T01:29:33.528Z,312.03
2019-04-06T01:30:38.052Z,300.73
2019-04-06T01:31:42.540Z,311.97
2019-04-06T01:32:47.085Z,316.20
2019-04-06T01:33:51.427Z,305.50
2019-04-06T01:34:55.759Z,301.50
2019-04-06T01:36:00.133Z,283.53
2019-04-06T01:37:04.575Z,294.33
2019-04-06T01:38:08.925Z,302.03
2019-04-06T01:39:13.295Z,301.20
2019-04-06T01:40:17.778Z,281.67
2019-04-06T01:41:31.414Z,283.30
2019-04-06T01:42:35.875Z,280.27
2019-04-06T01:43:40.266Z,267.93
2019-04-06T01:44:44.665Z,283.73
2019-04-06T01:45:49.105Z,293.03
2019-04-06T01:46:53.445Z,299.13
2019-04-06T01:47:57.833Z,286.47
2019-04-06T01:49:02.247Z,278.27
2019-04-06T01:50:07.071Z,288.30
2019-04-06T01:51:11.419Z,266.40
2019-04-06T01:52:15.766Z,289.70
2019-04-06T01:53:20.119Z,291.47
2019-04-06T01:54:24.453Z,291.20
2019-04-06T01:55:28.817Z,288.13
2019-04-06T01:56:33.283Z,288.97
2019-04-06T01:57:37.612Z,298.90
2019-04-06T01:58:41.996Z,292.60
2019-04-06T01:59:46.312Z,302.13
2019-04-06T02:01:16.267Z,309.67
2019-04-06T02:02:25.181Z,339.30
2019-04-06T02:03:29.512Z,318.33
2019-04-06T02:04:33.844Z,332.80
2019-04-06T02:05:38.262Z,331.87
2019-04-06T02:06:42.645Z,308.30
2019-04-06T02:07:47.143Z,321.97
2019-04-06T02:08:51.531Z,341.67
2019-04-06T02:09:55.847Z,367.67
2019-04-06T02:11:00.199Z,365.63
2019-04-06T02:12:04.620Z,342.77
2019-04-06T02:13:08.937Z,323.70
2019-04-06T02:14:13.260Z,329.93
2019-04-06T02:15:17.984Z,326.33
2019-04-06T02:16:22.393Z,327.27
2019-04-06T02:17:26.850Z,332.20
2019-04-06T02:18:31.205Z,341.87
2019-04-06T02:19:35.713Z,339.17
2019-04-06T02:20:40.241Z,346.50
2019-04-06T02:21:44.878Z,350.53
2019-04-06T02:22:49.177Z,329.93
2019-04-06T02:23:53.518Z,332.17
2019-04-06T02:24:57.957Z,324.93
2019-04-06T02:26:02.362Z,310.13
2019-04-06T02:27:06.825Z,313.60
2019-04-06T02:28:11.188Z,321.43
2019-04-06T02:29:15.600Z,295.63
2019-04-06T02:30:27.832Z,321.23
2019-04-06T02:31:55.302Z,298.27
2019-04-06T02:33:08.415Z,313.57
2019-04-06T02:34:30.324Z,305.07
2019-04-06T02:35:44.187Z,310.90
2019-04-06T02:37:06.679Z,323.47
2019-04-06T02:38:33.284Z,327.87
2019-04-06T02:39:55.417Z,310.17
2019-04-06T02:41:07.945Z,310.07
2019-04-06T02:42:16.701Z,309.10
2019-04-06T02:43:24.032Z,316.17
2019-04-06T02:44:28.395Z,310.63
2019-04-06T02:45:32.752Z,326.47
2019-04-06T02:46:37.087Z,340.17
2019-04-06T02:47:41.451Z,297.63
2019-04-06T02:48:45.874Z,292.77
2019-04-06T02:49:50.346Z,297.07
2019-04-06T02:50:54.736Z,312.70
2019-04-06T02:51:59.154Z,315.83
2019-04-06T02:53:03.488Z,293.33
2019-04-06T02:54:07.834Z,303.20
2019-04-06T02:55:12.332Z,310.87
2019-04-06T02:56:16.728Z,285.73
2019-04-06T02:57:21.123Z,295.43
2019-04-06T02:58:25.588Z,284.20
2019-04-06T02:59:30.167Z,286.43
2019-04-06T03:00:34.574Z,283.70
2019-04-06T03:01:39.035Z,287.77
2019-04-06T03:02:43.592Z,273.60
2019-04-06T03:03:48.101Z,288.83
2019-04-06T03:04:52.512Z,292.87
2019-04-06T03:05:57.173Z,279.27
2019-04-06T03:07:01.649Z,263.87
2019-04-06T03:08:06.122Z,258.47
2019-04-06T03:09:11.809Z,261.67
2019-04-06T03:10:16.658Z,263.47
2019-04-06T03:11:21.009Z,265.57
2019-04-06T03:12:25.484Z,266.83
2019-04-06T03:13:29.969Z,251.53
2019-04-06T03:14:34.459Z,259.87
2019-04-06T03:15:38.844Z,264.30
2019-04-06T03:16:43.307Z,270.77
2019-04-06T03:17:47.697Z,253.50
2019-04-06T03:18:52.171Z,265.43
2019-04-06T03:19:56.967Z,249.83
2019-04-06T03:21:01.975Z,285.97
2019-04-06T03:22:06.480Z,290.93
2019-04-06T03:23:10.855Z,274.33
2019-04-06T03:24:15.209Z,286.63
2019-04-06T03:25:19.618Z,269.43
2019-04-06T03:26:24.032Z,266.73
2019-04-06T03:27:28.419Z,270.50
2019-04-06T03:28:33.088Z,268.93
2019-04-06T03:29:37.605Z,276.40
2019-04-06T03:30:42.303Z,282.73
2019-04-06T03:31:46.830Z,276.87
2019-04-06T03:32:51.564Z,286.00
2019-04-06T03:33:56.330Z,286.93
2019-04-06T03:35:01.099Z,257.90
2019-04-06T03:36:05.736Z,253.53
2019-04-06T03:37:10.143Z,264.73
2019-04-06T03:38:14.854Z,258.70
2019-04-06T03:39:19.451Z,245.17
2019-04-06T03:40:23.869Z,236.60
2019-04-06T03:41:28.328Z,252.53
2019-04-06T03:42:32.776Z,254.43
2019-04-06T03:43:37.179Z,243.53
2019-04-06T03:44:41.558Z,279.83
2019-04-06T03:45:46.560Z,267.97
2019-04-06T03:46:51.235Z,261.60
2019-04-06T03:47:55.931Z,271.87
2019-04-06T03:49:00.572Z,256.50
2019-04-06T03:50:05.899Z,261.60
2019-04-06T03:51:10.419Z,262.00
2019-04-06T03:52:14.779Z,261.80
2019-04-06T03:53:19.183Z,264.37
2019-04-06T03:54:23.600Z,275.83
2019-04-06T03:55:28.071Z,278.20
2019-04-06T03:56:32.467Z,287.07
2019-04-06T03:57:36.805Z,288.47
2019-04-06T03:58:41.234Z,279.37
2019-04-06T03:59:45.669Z,282.30
2019-04-06T04:00:50.511Z,315.20
2019-04-06T04:01:55.002Z,311.03
2019-04-06T04:02:59.649Z,284.77
2019-04-06T04:04:04.221Z,294.77
2019-04-06T04:05:08.654Z,293.30
2019-04-06T04:06:13.057Z,302.63
2019-04-06T04:07:17.689Z,304.07
2019-04-06T04:08:22.139Z,322.93
2019-04-06T04:09:26.842Z,327.70
2019-04-06T04:10:37.847Z,310.90
2019-04-06T04:11:42.264Z,309.73
2019-04-06T04:12:46.827Z,318.23
2019-04-06T04:13:51.295Z,310.50
2019-04-06T04:14:55.643Z,309.87
2019-04-06T04:16:00.164Z,316.07
2019-04-06T04:17:04.648Z,341.00
2019-04-06T04:18:09.086Z,306.90
2019-04-06T04:19:13.510Z,305.23
2019-04-06T04:20:17.946Z,342.23
2019-04-06T04:21:22.412Z,338.57
2019-04-06T04:22:26.982Z,314.97
2019-04-06T04:23:31.336Z,341.67
2019-04-06T04:24:35.800Z,349.77
2019-04-06T04:25:40.342Z,331.67
2019-04-06T04:26:44.913Z,326.90
2019-04-06T04:27:49.649Z,324.80
2019-04-06T04:28:54.389Z,338.20
2019-04-06T04:29:59.125Z,337.10
2019-04-06T04:31:03.642Z,352.67
2019-04-06T04:32:08.139Z,324.83
2019-04-06T04:33:12.502Z,360.70
2019-04-06T04:34:17.088Z,340.57
2019-04-06T04:35:21.591Z,348.20
2019-04-06T04:36:26.211Z,329.87
2019-04-06T04:37:31.685Z,383.13
2019-04-06T04:38:36.138Z,388.13
2019-04-06T04:39:40.521Z,378.23
2019-04-06T04:40:45.111Z,368.10
2019-04-06T04:41:49.688Z,346.70
2019-04-06T04:42:54.047Z,339.90
2019-04-06T04:43:58.542Z,362.03
2019-04-06T04:45:02.941Z,376.47
2019-04-06T04:46:07.318Z,370.20
2019-04-06T04:47:11.720Z,339.80
2019-04-06T04:48:16.220Z,343.37
2019-04-06T04:49:20.744Z,390.07
2019-04-06T04:50:25.188Z,389.03
2019-04-06T04:51:29.648Z,435.80
2019-04-06T04:52:34.016Z,418.30
2019-04-06T04:53:38.608Z,434.93
2019-04-06T04:54:43.029Z,412.77
2019-04-06T04:55:47.526Z,379.23
2019-04-06T04:56:52.132Z,409.67
2019-04-06T04:57:56.795Z,424.70
2019-04-06T04:59:01.341Z,379.60
2019-04-06T05:00:06.475Z,394.30
2019-04-06T05:01:11.226Z,387.57
2019-04-06T05:02:15.572Z,371.57
2019-04-06T05:03:20.146Z,377.17
2019-04-06T05:04:24.698Z,376.67
2019-04-06T05:05:29.163Z,381.73
2019-04-06T05:06:33.587Z,375.87
2019-04-06T05:07:38.106Z,376.57
2019-04-06T05:08:42.563Z,369.43
2019-04-06T05:09:46.999Z,357.57
2019-04-06T05:10:51.537Z,375.83
2019-04-06T05:11:56.027Z,361.07
2019-04-06T05:13:00.563Z,356.53
2019-04-06T05:14:40.959Z,363.67
2019-04-06T05:16:22.912Z,371.03
2019-04-06T05:17:27.528Z,360.77
2019-04-06T05:18:31.899Z,391.97
2019-04-06T05:19:36.378Z,353.40
2019-04-06T05:20:40.793Z,351.90
2019-04-06T05:21:45.290Z,347.33
2019-04-06T05:22:49.887Z,359.23
2019-04-06T05:23:54.231Z,349.00
2019-04-06T05:24:58.826Z,310.00
2019-04-06T05:26:05.373Z,335.40
2019-04-06T05:27:09.860Z,331.33
2019-04-06T05:28:14.234Z,314.60
2019-04-06T05:29:18.628Z,291.17
2019-04-06T05:30:23.081Z,281.63
2019-04-06T05:31:27.456Z,281.30
2019-04-06T05:32:31.863Z,275.57
2019-04-06T05:33:36.967Z,265.27
2019-04-06T05:34:41.443Z,267.40
2019-04-06T05:35:46.050Z,262.93
2019-04-06T05:36:50.595Z,246.70
2019-04-06T05:37:55.107Z,268.40
2019-04-06T05:38:59.519Z,268.57
2019-04-06T05:40:04.313Z,263.93
2019-04-06T05:41:09.620Z,262.20
2019-04-06T05:42:14.131Z,269.33
2019-04-06T05:43:18.520Z,257.63
2019-04-06T05:44:22.884Z,266.17
2019-04-06T05:45:27.444Z,271.37
2019-04-06T05:46:31.982Z,267.10
2019-04-06T05:47:36.475Z,259.47
2019-04-06T05:48:40.865Z,253.90
2019-04-06T05:49:45.305Z,247.83
2019-04-06T05:50:49.656Z,234.80
2019-04-06T05:51:54.256Z,244.70
2019-04-06T05:52:58.591Z,234.23
2019-04-06T05:54:03.310Z,234.40
2019-04-06T05:55:07.779Z,234.90
2019-04-06T05:56:12.220Z,220.53
2019-04-06T05:57:16.573Z,217.13
2019-04-06T05:58:20.937Z,234.93
2019-04-06T05:59:25.486Z,223.80
2019-04-06T06:00:29.864Z,205.33
2019-04-06T06:01:34.204Z,205.93
2019-04-06T06:02:41.409Z,187.73
2019-04-06T06:03:44.655Z,202.90
2019-04-06T06:04:50.050Z,210.93
2019-04-06T06:05:54.435Z,182.47
2019-04-06T06:06:58.932Z,173.47
2019-04-06T06:08:03.518Z,179.30
2019-04-06T06:09:08.300Z,171.00
2019-04-06T06:10:12.907Z,166.60
2019-04-06T06:11:17.337Z,165.33
2019-04-06T06:12:21.765Z,158.30
2019-04-06T06:13:26.280Z,165.30
2019-04-06T06:14:30.715Z,150.83
2019-04-06T06:15:35.264Z,156.07
2019-04-06T06:16:39.688Z,155.10
2019-04-06T06:17:44.199Z,145.97
2019-04-06T06:18:48.847Z,140.93
2019-04-06T06:19:53.225Z,148.40
2019-04-06T06:20:57.576Z,149.70
2019-04-06T06:22:02.152Z,150.73
2019-04-06T06:23:06.675Z,142.87
2019-04-06T06:24:11.074Z,150.10
2019-04-06T06:25:15.718Z,141.30
2019-04-06T06:26:20.471Z,148.33
2019-04-06T06:27:25.034Z,145.13
2019-04-06T06:28:29.650Z,146.17
2019-04-06T06:29:34.040Z,143.43
2019-04-06T06:30:38.394Z,144.23
2019-04-06T06:31:42.769Z,143.00
2019-04-06T06:32:47.184Z,138.77
2019-04-06T06:33:51.715Z,141.13
2019-04-06T06:34:56.212Z,135.97
2019-04-06T06:36:00.637Z,137.97
2019-04-06T06:37:05.217Z,135.80
2019-04-06T06:38:09.551Z,138.97
2019-04-06T06:39:14.113Z,140.40
2019-04-06T06:40:18.914Z,139.97
2019-04-06T06:41:23.371Z,140.70
2019-04-06T06:42:27.826Z,138.67
2019-04-06T06:43:32.291Z,143.20
2019-04-06T06:44:36.736Z,135.07
2019-04-06T06:45:41.220Z,143.20
2019-04-06T06:46:45.739Z,145.17
2019-04-06T06:47:50.149Z,145.87
2019-04-06T06:48:54.715Z,146.87
2019-04-06T06:49:59.207Z,141.77
2019-04-06T06:51:03.717Z,144.90
2019-04-06T06:52:08.269Z,144.50
2019-04-06T06:53:12.673Z,138.67
2019-04-06T06:54:17.121Z,139.80
2019-04-06T06:55:21.624Z,146.13
2019-04-06T06:56:26.140Z,143.63
2019-04-06T06:57:30.706Z,143.00
2019-04-06T06:58:35.258Z,144.70
2019-04-06T06:59:39.615Z,143.30
2019-04-06T07:00:44.490Z,146.53
2019-04-06T07:01:48.847Z,143.17
2019-04-06T07:02:53.318Z,141.97
2019-04-06T07:03:57.756Z,138.80
2019-04-06T07:05:02.136Z,139.03
2019-04-06T07:06:06.576Z,143.00
2019-04-06T07:07:11.056Z,130.60
2019-04-06T07:08:15.520Z,137.20
2019-04-06T07:09:19.924Z,136.93
2019-04-06T07:10:24.291Z,138.97
2019-04-06T07:11:28.839Z,136.20
2019-04-06T07:12:33.234Z,125.90
2019-04-06T07:13:37.895Z,131.03
2019-04-06T07:14:42.564Z,124.70
2019-04-06T07:15:47.071Z,131.13
2019-04-06T07:16:51.539Z,129.27
2019-04-06T07:17:56.005Z,119.93
2019-04-06T07:19:00.566Z,121.57
2019-04-06T07:20:07.064Z,132.43
2019-04-06T07:21:11.555Z,121.07
2019-04-06T07:22:15.984Z,130.27
2019-04-06T07:23:20.484Z,126.37
2019-04-06T07:24:25.007Z,130.37
2019-04-06T07:25:29.413Z,127.07
2019-04-06T07:26:33.784Z,119.87
2019-04-06T07:27:38.200Z,124.37
2019-04-06T07:28:42.542Z,121.23
2019-04-06T07:29:46.946Z,115.77
2019-04-06T07:30:51.383Z,120.50
2019-04-06T07:31:55.791Z,116.77
2019-04-06T07:33:00.181Z,126.50
2019-04-06T07:34:04.713Z,124.73
2019-04-06T07:35:09.184Z,111.57
2019-04-06T07:36:13.803Z,117.33
2019-04-06T07:37:18.208Z,118.63
2019-04-06T07:38:22.567Z,111.30
2019-04-06T07:39:26.984Z,105.13
2019-04-06T07:40:31.407Z,106.80
2019-04-06T07:41:35.746Z,103.53
2019-04-06T07:42:40.157Z,117.87
2019-04-06T07:43:44.894Z,115.20
2019-04-06T07:44:49.389Z,117.23
2019-04-06T07:45:53.992Z,107.10
2019-04-06T07:46:58.522Z,117.73
2019-04-06T07:48:02.939Z,107.97
2019-04-06T07:49:09.766Z,117.80
2019-04-06T07:50:13.925Z,122.37
2019-04-06T07:51:18.376Z,103.93
2019-04-06T07:52:22.949Z,111.20
2019-04-06T07:53:27.484Z,104.33
2019-04-06T07:54:31.940Z,108.87
2019-04-06T07:55:37.033Z,109.23
2019-04-06T07:56:41.446Z,114.10
2019-04-06T07:57:45.831Z,103.90
2019-04-06T07:58:50.581Z,101.87
2019-04-06T07:59:55.004Z,95.57
2019-04-06T08:00:59.385Z,102.70
2019-04-06T08:02:04.088Z,102.07
2019-04-06T08:03:08.674Z,96.80
2019-04-06T08:04:13.161Z,104.70
2019-04-06T08:05:17.632Z,96.00
2019-04-06T08:06:21.996Z,93.07
2019-04-06T08:07:26.532Z,91.07
2019-04-06T08:08:30.934Z,93.80
2019-04-06T08:09:35.477Z,102.73
2019-04-06T08:10:40.290Z,105.43
2019-04-06T08:11:44.875Z,102.77
2019-04-06T08:12:49.334Z,94.63
2019-04-06T08:13:53.890Z,89.53
2019-04-06T08:14:58.357Z,95.43
2019-04-06T08:16:03.306Z,90.50
2019-04-06T08:17:07.865Z,91.33
2019-04-06T08:18:12.229Z,94.53
2019-04-06T08:19:16.759Z,94.17
2019-04-06T08:20:21.381Z,92.20
2019-04-06T08:21:25.853Z,88.00
2019-04-06T08:22:30.396Z,82.50
2019-04-06T08:23:34.758Z,88.20
2019-04-06T08:24:39.201Z,81.40
2019-04-06T08:25:43.855Z,88.67
2019-04-06T08:26:48.355Z,86.73
2019-04-06T08:27:52.842Z,89.17
2019-04-06T08:29:01.530Z,91.90
2019-04-06T08:30:03.520Z,89.20
2019-04-06T08:31:07.931Z,84.93
2019-04-06T08:32:12.257Z,79.00
2019-04-06T08:33:16.587Z,83.77
2019-04-06T08:34:21.033Z,84.53
2019-04-06T08:35:26.790Z,83.93
2019-04-06T08:36:31.410Z,87.90
2019-04-06T08:37:35.953Z,79.57
2019-04-06T08:38:40.475Z,84.73
2019-04-06T08:39:45.026Z,84.47
2019-04-06T08:40:49.695Z,87.83
2019-04-06T08:41:54.478Z,80.03
2019-04-06T08:43:08.394Z,87.00
2019-04-06T08:44:12.979Z,82.77
2019-04-06T08:45:17.487Z,82.47
2019-04-06T08:46:21.889Z,84.13
2019-04-06T08:47:26.621Z,81.40
2019-04-06T08:48:31.170Z,81.17
2019-04-06T08:49:35.640Z,85.60
2019-04-06T08:50:40.236Z,86.43
2019-04-06T08:51:44.626Z,79.97
2019-04-06T08:52:49.069Z,80.53
2019-04-06T08:53:53.415Z,86.97
2019-04-06T08:54:57.793Z,81.03
2019-04-06T08:56:02.268Z,84.70
2019-04-06T08:57:06.758Z,78.57
2019-04-06T08:58:11.382Z,81.97
2019-04-06T08:59:17.211Z,80.33
2019-04-06T09:00:21.780Z,76.80
2019-04-06T09:01:26.361Z,73.90
2019-04-06T09:02:30.759Z,75.13
2019-04-06T09:03:35.205Z,73.83
2019-04-06T09:04:39.784Z,78.30
2019-04-06T09:05:44.545Z,81.90
2019-04-06T09:06:49.072Z,72.40
2019-04-06T09:07:53.486Z,80.10
2019-04-06T09:08:57.953Z,84.40
2019-04-06T09:10:02.495Z,79.23
2019-04-06T09:11:06.906Z,72.37
2019-04-06T09:12:11.298Z,80.83
2019-04-06T09:13:15.644Z,73.73
2019-04-06T09:14:20.042Z,78.13
2019-04-06T09:15:24.414Z,74.97
2019-04-06T09:16:28.772Z,80.37
2019-04-06T09:17:33.143Z,80.17
2019-04-06T09:18:37.678Z,80.93
2019-04-06T09:19:42.097Z,74.87
2019-04-06T09:20:46.583Z,79.17
2019-04-06T09:21:50.995Z,79.60
2019-04-06T09:22:55.754Z,75.97
2019-04-06T09:24:00.155Z,72.37
2019-04-06T09:25:04.943Z,74.50
2019-04-06T09:26:09.431Z,72.57
2019-04-06T09:27:13.848Z,76.47
2019-04-06T09:28:18.261Z,73.30
2019-04-06T09:29:24.460Z,70.97
2019-04-06T09:30:29.034Z,75.97
2019-04-06T09:31:33.583Z,78.07
2019-04-06T09:32:37.971Z,70.23
2019-04-06T09:33:42.369Z,71.53
2019-04-06T09:34:46.753Z,73.13
2019-04-06T09:35:51.153Z,72.83
2019-04-06T09:36:55.754Z,63.83
2019-04-06T09:38:00.148Z,70.93
2019-04-06T09:39:06.525Z,68.57
2019-04-06T09:40:11.997Z,70.60
2019-04-06T09:41:16.409Z,70.77
2019-04-06T09:42:20.820Z,74.83
2019-04-06T09:43:25.409Z,70.13
2019-04-06T09:45:07.120Z,74.37
2019-04-06T09:46:18.719Z,73.50
2019-04-06T09:47:30.009Z,77.27
2019-04-06T09:48:44.046Z,70.73
2019-04-06T09:50:19.869Z,67.23
2019-04-06T09:51:34.798Z,69.47
2019-04-06T09:52:45.811Z,71.93
2019-04-06T09:54:18.373Z,70.73
2019-04-06T09:55:32.214Z,68.40
2019-04-06T09:56:49.464Z,66.93
2019-04-06T09:58:22.213Z,71.97
2019-04-06T09:59:38.021Z,70.43
2019-04-06T10:00:58.424Z,61.83
2019-04-06T10:02:18.454Z,70.50
2019-04-06T10:03:51.167Z,65.50
2019-04-06T10:05:33.028Z,66.47
2019-04-06T10:06:44.386Z,68.23
2019-04-06T10:08:07.613Z,67.00
2019-04-06T10:09:30.513Z,68.37
2019-04-06T10:10:57.051Z,65.70
2019-04-06T10:12:19.312Z,67.50
2019-04-06T10:13:42.988Z,66.63
2019-04-06T10:15:12.185Z,67.77
2019-04-06T10:16:35.969Z,64.57
2019-04-06T10:18:02.878Z,64.37
2019-04-06T10:19:35.442Z,60.30
2019-04-06T10:21:05.683Z,65.37
2019-04-06T10:22:17.241Z,65.73
2019-04-06T10:23:32.627Z,70.03
2019-04-06T10:24:49.806Z,70.60
2019-04-06T10:26:16.360Z,71.23
2019-04-06T10:27:40.101Z,67.50
2019-04-06T10:29:02.703Z,66.13
2019-04-06T10:30:26.043Z,72.07
2019-04-06T10:31:49.617Z,63.30
2019-04-06T10:32:59.993Z,64.27
2019-04-06T10:34:16.379Z,64.83
2019-04-06T10:35:51.904Z,66.47
2019-04-06T10:37:20.985Z,67.93
2019-04-06T10:38:45.499Z,68.43
2019-04-06T10:39:54.908Z,60.10
2019-04-06T10:41:24.128Z,66.93
2019-04-06T10:42:51.570Z,65.07
2019-04-06T10:44:16.549Z,64.07
2019-04-06T10:45:40.206Z,62.87
2019-04-06T10:46:50.852Z,71.43
2019-04-06T10:48:02.461Z,62.27
2019-04-06T10:49:25.996Z,58.27
2019-04-06T10:50:48.495Z,61.03
2019-04-06T10:52:19.664Z,61.80
2019-04-06T10:53:36.383Z,55.63
2019-04-06T10:55:01.685Z,57.20
2019-04-06T10:56:23.478Z,61.87
2019-04-06T10:57:59.198Z,62.23
2019-04-06T10:59:28.592Z,52.57
2019-04-06T11:00:54.126Z,55.23
2019-04-06T11:02:26.829Z,59.60
2019-04-06T11:04:05.712Z,61.57
2019-04-06T11:05:25.026Z,57.90
2019-04-06T11:06:42.180Z,59.33
2019-04-06T11:07:51.000Z,60.17
2019-04-06T11:09:08.017Z,54.63
2019-04-06T11:10:27.257Z,55.17
2019-04-06T11:11:49.700Z,57.97
2019-04-06T11:13:13.532Z,60.67
2019-04-06T11:14:45.788Z,60.73
2019-04-06T11:16:09.508Z,57.57
2019-04-06T11:17:26.252Z,56.67
2019-04-06T11:18:42.832Z,59.80
2019-04-06T11:19:54.252Z,55.20
2019-04-06T11:21:12.165Z,59.47
2019-04-06T11:22:33.627Z,53.97
2019-04-06T11:23:48.760Z,53.73
2019-04-06T11:25:04.935Z,53.47
2019-04-06T11:26:37.456Z,51.80
2019-04-06T11:27:51.887Z,48.17
2019-04-06T11:29:17.186Z,48.20
2019-04-06T11:30:39.521Z,43.00
2019-04-06T11:31:56.169Z,46.48
2019-04-06T11:33:10.610Z,43.92
2019-04-06T11:34:26.847Z,51.63
2019-04-06T11:35:43.924Z,49.85
2019-04-06T11:37:03.817Z,42.23
2019-04-06T11:38:17.912Z,41.53
2019-04-06T11:39:41.505Z,43.58
2019-04-06T11:40:59.183Z,41.70
2019-04-06T11:42:18.442Z,38.80
2019-04-06T11:43:34.220Z,42.48
2019-04-06T11:44:56.293Z,45.83
2019-04-06T11:46:16.432Z,36.53
2019-04-06T11:47:26.572Z,40.25
2019-04-06T11:48:48.643Z,44.18
2019-04-06T11:50:12.081Z,41.02
2019-04-06T11:51:42.272Z,33.95
2019-04-06T11:53:00.061Z,36.40
2019-04-06T11:54:22.945Z,39.75
2019-04-06T11:55:43.298Z,33.45
2019-04-06T11:56:56.021Z,32.20
2019-04-06T11:58:12.884Z,35.90
2019-04-06T11:59:39.438Z,31.70
2019-04-06T12:01:02.845Z,34.85
2019-04-06T12:02:35.245Z,35.33
2019-04-06T12:04:04.266Z,32.85
2019-04-06T12:05:27.194Z,31.50
2019-04-06T12:06:49.673Z,32.08
2019-04-06T12:08:12.043Z,33.10
2019-04-06T12:09:38.315Z,28.83
2019-04-06T12:10:58.383Z,28.62
2019-04-06T12:12:09.611Z,28.20
2019-04-06T12:13:28.170Z,29.50
2019-04-06T12:14:54.502Z,29.12
2019-04-06T12:16:16.943Z,26.05
2019-04-06T12:17:39.520Z,26.90
2019-04-06T12:18:58.301Z,24.92
2019-04-06T12:20:25.012Z,24.72
2019-04-06T12:21:48.608Z,24.47
2019-04-06T12:22:59.379Z,27.30
2019-04-06T12:24:22.708Z,26.57
2019-04-06T12:25:44.926Z,28.67
2019-04-06T12:27:08.008Z,28.00
2019-04-06T12:28:40.880Z,26.30
2019-04-06T12:30:01.184Z,21.00
2019-04-06T12:31:30.222Z,19.92
2019-04-06T12:32:51.237Z,20.92
2019-04-06T12:34:14.830Z,20.55
2019-04-06T12:35:41.983Z,18.90
2019-04-06T12:37:01.491Z,19.60
2019-04-06T12:38:19.773Z,20.27
2019-04-06T12:39:53.041Z,19.57
2019-04-06T12:41:09.786Z,18.52
2019-04-06T12:42:32.271Z,17.32
2019-04-06T12:44:02.256Z,16.90
2019-04-06T12:45:22.972Z,17.87
2019-04-06T12:46:37.742Z,17.80
2019-04-06T12:48:00.666Z,17.75
2019-04-06T12:49:29.479Z,17.45
2019-04-06T12:50:52.672Z,16.90
2019-04-06T12:52:14.205Z,18.65
2019-04-06T12:53:38.949Z,17.87
2019-04-06T12:54:59.616Z,16.20
2019-04-06T12:56:23.245Z,17.50
2019-04-06T12:57:41.225Z,18.02
2019-04-06T12:58:50.026Z,18.70
2019-04-06T13:00:05.180Z,16.95
2019-04-06T13:01:28.581Z,17.77
2019-04-06T13:02:50.570Z,16.35
2019-04-06T13:04:13.154Z,15.48
2019-04-06T13:05:36.573Z,13.45
2019-04-06T13:06:58.312Z,14.20
2019-04-06T13:08:20.497Z,15.45
2019-04-06T13:09:53.872Z,15.85
2019-04-06T13:11:05.038Z,15.78
2019-04-06T13:12:34.693Z,14.93
2019-04-06T13:14:01.104Z,14.60
2019-04-06T13:15:18.829Z,15.70
2019-04-06T13:16:29.715Z,16.73
2019-04-06T13:17:53.196Z,14.75
2019-04-06T13:19:17.475Z,15.35
2019-04-06T13:20:32.801Z,14.93
2019-04-06T13:22:02.565Z,16.62
2019-04-06T13:23:47.413Z,14.40
2019-04-06T13:25:08.596Z,15.03
2019-04-06T13:26:33.495Z,15.50
2019-04-06T13:28:06.404Z,15.53
2019-04-06T13:29:20.475Z,13.58
2019-04-06T13:30:46.801Z,15.25
2019-04-06T13:32:02.003Z,13.93
2019-04-06T13:33:27.843Z,15.53
2019-04-06T13:34:51.375Z,16.50
2019-04-06T13:36:09.579Z,14.58
2019-04-06T13:37:36.217Z,15.13
2019-04-06T13:38:53.735Z,15.60
2019-04-06T13:40:08.396Z,17.00
2019-04-06T13:41:34.897Z,15.38
2019-04-06T13:42:57.252Z,15.03
2019-04-06T13:44:36.416Z,14.85
2019-04-06T13:46:02.700Z,14.20
2019-04-06T13:47:35.370Z,14.75
2019-04-06T13:48:57.400Z,14.68
2019-04-06T13:50:23.493Z,15.00
2019-04-06T13:51:46.200Z,15.70
2019-04-06T13:53:06.866Z,16.57
2019-04-06T13:54:33.763Z,18.42
2019-04-06T13:55:44.804Z,16.25
2019-04-06T13:57:07.880Z,16.25
2019-04-06T13:58:17.664Z,14.65
2019-04-06T13:59:28.439Z,16.27
2019-04-06T14:01:13.482Z,16.07
2019-04-06T14:02:35.021Z,18.35
2019-04-06T14:03:57.829Z,15.08
2019-04-06T14:05:10.083Z,15.10
2019-04-06T14:06:32.546Z,15.60
2019-04-06T14:07:47.023Z,17.23
2019-04-06T14:09:00.687Z,16.12
2019-04-06T14:10:24.135Z,19.67
2019-04-06T14:11:54.204Z,15.58
2019-04-06T14:13:36.063Z,15.80
2019-04-06T14:14:59.420Z,14.75
2019-04-06T14:16:18.945Z,14.70
2019-04-06T14:17:53.956Z,18.25
2019-04-06T14:19:07.864Z,14.20
2019-04-06T14:20:44.055Z,14.13
2019-04-06T14:21:57.912Z,18.10
2019-04-06T14:23:20.152Z,16.40
2019-04-06T14:24:49.609Z,14.65
2019-04-06T14:26:20.037Z,15.18
2019-04-06T14:27:43.407Z,15.90
2019-04-06T14:29:00.525Z,15.25
2019-04-06T14:30:25.717Z,12.33
2019-04-06T14:31:48.532Z,13.70
2019-04-06T14:33:24.250Z,13.62
2019-04-06T14:34:39.570Z,12.75
2019-04-06T14:36:01.484Z,13.32
2019-04-06T14:37:17.501Z,13.50
2019-04-06T14:38:38.187Z,13.80
2019-04-06T14:40:16.855Z,20.25
2019-04-06T14:41:40.685Z,12.80
2019-04-06T14:43:10.391Z,21.05
2019-04-06T14:44:34.061Z,12.37
2019-04-06T14:45:45.755Z,12.90
2019-04-06T14:47:15.320Z,11.78